Airfield :
LOGIN :

Register | Disclaimer

   EN    FR    IT 

 










Legend :    VFR   Marginal VFR   IFR   Intensive IFR   Very Intensive IFR
Visi :
Ceiling :
>= 8 km
>= 3000ft
5 to 8 km
1000 to 3000 ft
1500m to 5 km
500 to 1000 ft
800 to 1500m
200 to 500 ft
< 800m
< 200 ft
Symbols :   Thunderstorms  Fog  Heavy snow  Heavy precipitations  Wind > 20 kt
SIGMETs :     Misc.  Thunderstorms  Icing  Turbulence  Mountain Waves  Volcanic Ashes






- Airport Elevation : 16 ft
- IATA code : SDR


LEXJ - Santander Cantabria

CURRENT METAR :
  • 270730Z 35014G26KT 290V030 9999 BKN032 08/02 Q1007

EXPIRED METARs :
  • 270700Z 33011KT 270V010 9999 SCT028 BKN040 09/04 Q1005
  • 270630Z 35018G30KT 290V030 8000 -RA FEW016 BKN030 08/04 Q1005
  • 270600Z 30015KT 9999 FEW024 BKN035 09/04 Q1004
  • 270530Z 33016G26KT 290V020 9000 -RA FEW018 BKN028 09/06 Q1004 RERA
  • 270500Z 34017G30KT 280V020 6000 RA SCT020 BKN028 10/07 Q1004

TAF TAF LEXJ
Valid from the 27 at 03:00 until the 28 at 03:00 UTC


270200Z 2703/2803 30009KT 9999 SCT020 BKN035 TX12/2712Z TN06/2708Z
TEMPO 2703/2803 30019G29KT
TEMPO 2703/2710 30025G43KT
TEMPO 2703/2803 3000 RA SHRA BKN010 SCT030TCU
PROB40
TEMPO 2704/2803 1500 SHRAGR BKN010 SCT030TCU SCT035CB
PROB40
TEMPO 2704/2803 TS SCT030CB



MET'MAP, your aeronautical weather chart ! - Copyright ORBIFLY December 2007 - Disclaimer

ORBIFLY MET'MAP TEAM :

Programming & Development : Alexandra Zaïnal
Concept & original design : Baudouin d'Aumeries
Assistance for programming : Marc-Olivier Méhu
Technical & hardware support : Manuel Goepfert

Contact : metmap@orbifly.com




SOURCES & CREDITS :

   NOAA